Texas Shootout - HAND INVENTORY

Station: HAND INVENTORY - T Race

Distance: 1 Miles

Release: 10-Jul-2017 07:30

Weather Release:    Arrival:

Wind at Release:     Wind at Arrival:

Temp at Release: °    Temp at Arrival: °

Lofts: 162

Birds: 1023

Clocked: 984

Good Luck to Everyone!
Drops Pos Breeder Pigeon Name Color Sex Ent Arrival Speed To Win Eligible
401 Smith & Smith 1 - TX 17051-AU17-ACES DC H 6 09:34:27.28 14.142 01:29:33 Yes
402 Espo Loft - SC 0964-AU17-ESPO BB H 4 09:34:34.34 14.128 01:29:40 Yes
403 Elton Dinga - TX 12116-AU17-AA BB C 26 09:34:48.55 14.102 01:29:54 Yes
404 Nesneb Racing Loft - AL 17115-AU17-MOB BB H 3 09:34:50.75 14.097 01:29:56 Yes
405 The Firm - TX 1188-IF17-KOLV Dark Queen Of Dallas DC H 2 09:35:10.06 14.061 01:30:16 Yes
406 Neighbor Hood Bullies - TX 0702-AU17-HALE BBWF H 5 09:35:14.25 14.053 01:30:20 Yes
407 - 12112-AU17-AA 27 09:35:27.09 14.029 01:30:33
408 Scorpion Loft - TX 14723-MX17-CNU BB H 4 09:35:29.03 14.026 01:30:34 Yes
409 Wind Chaser - MI 1624-AU17-GRM BC H 5 09:35:50.74 13.985 01:30:56 Yes
410 Southern Legacy Loft - TX 2284-AU17-JOJO BB H 7 09:35:51.95 13.983 01:30:57 Yes
411 Shallow Pockets - TX 0066-AU17-SHAL BB C 4 09:36:14.84 13.941 01:31:20 Yes
412 Tepa - TX 0299-AU17-DEN BC C 4 09:36:16.38 13.938 01:31:22 Yes
413 L & L Loft - AL 0050-AU17-LL BC H 6 09:36:41.52 13.892 01:31:47 Yes
414 Rodriquez & Aubone - TX 1758-AU17-TEJA BC H 7 09:36:44.75 13.886 01:31:50 Yes
415 Russell Hall - TX 7017-AU17-HALL BB C 4 09:37:00.52 13.857 01:32:06 Yes
416 Gossett & Son - TX 1015-AU17-WF BB H 3 09:37:04.89 13.849 01:32:11 Yes
417 Rodriquez & Aubone - TX 1756-AU17-TEJA BB H 8 09:37:22.50 13.817 01:32:28 Yes
418 A P C Loft - TX 17354-AU17-APC BWFP C 9 09:37:23.75 13.815 01:32:29 Yes
419 A P C Loft - TX 17356-AU17-APC BWFP H 10 09:37:39.27 13.787 01:32:45 Yes
420 A D L Loft - IL 0176-AU17-ADL BB C 8 09:37:42.47 13.781 01:32:48 Yes
421 Ecker/Murphy Syndicate - PA 1587-AU17-GSV BB H 3 09:38:00.19 13.750 01:33:05 Yes
422 West Wing Syndicate - TX 30468-AU17-JEDD BB H 3 09:38:02.33 13.746 01:33:08 Yes
423 L & L Loft - AL 17030-AU17-LL MIL H 7 09:38:21.08 13.712 01:33:27 Yes
424 Casale/Miner - CA 1718-AU17-VG BB H 2 09:38:40.31 13.678 01:33:46 Yes
425 Elton Dinga - TX 12132-AU17-AA BB C 28 09:38:53.56 13.655 01:33:59 Yes
426 Hi-Cal Connection - CA 0888-AU17-HICA BB C 3 09:38:58.45 13.646 01:34:04 Yes
427 L & L Loft - AL 17033-AU17-LL BB H 8 09:39:19.45 13.609 01:34:25 Yes
428 Spirit In The Sky - IL 0364-AU17-LCC BB H 4 09:39:25.56 13.599 01:34:31 Yes
429 T & T Lofts - TX 2211-AU17-TEX BC H 5 09:39:45.72 13.563 01:34:51 Yes
430 Ecker/Murphy Syndicate - PA 2356-IF17-CVR RC C 4 09:39:49.58 13.557 01:34:55 Yes
431 Cajun Express Loft - LA 0830-AU17-CEL BCWF H 1 09:40:04.33 13.531 01:35:10 Yes
432 Cbs & Rick - OK 1485-AU17-CBS BB H 4 09:40:06.58 13.527 01:35:12 Yes
433 Larry Payne - KS 0274-AU17-LPL GRZ C 6 09:40:29.66 13.487 01:35:35 Yes
434 Morningside Racing Loft - TX 91181-AU17-MSRL BB C 3 09:40:35.28 13.478 01:35:40 Yes
435 Hollywood Honey - CA 0003-AU17-SD BB H 4 09:40:54.88 13.444 01:36:00 Yes
436 Los Banditos - CA 2463-AU17-LB BC H 4 09:41:04.70 13.427 01:36:10 Yes
437 Cbs & Steve - OK 1428-AU17-CBS BC C 4 09:41:18.78 13.403 01:36:24 Yes
438 Baden Feed - ON 1026-IF17-LCC GRIZ H 1 09:41:22.24 13.397 01:36:28 Yes
439 Tex-Mex Loft - TX 0608-AU17-NSL Spook BLK C 11 09:41:43.70 13.361 01:36:49 Yes
440 Aok Loft - NE 0954-AU17-OMAH BB C 3 09:41:45.02 13.359 01:36:50 Yes
441 Kibria Rpl - TX 0064-AU17-DEN BC C 5 09:42:08.74 13.319 01:37:14 Yes
442 Hillbilly Loft - TX 17644-AU17-AA BWFP H 5 09:42:10.27 13.316 01:37:16 Yes
443 Southern Legacy Loft - TX 2263-AU17-JOJO BB H 8 09:42:38.47 13.269 01:37:44 Yes
444 Tex-Mex Loft - TX 0627-AU17-NSL Lucky BB H 12 09:42:40.63 13.265 01:37:46 Yes
445 New Orleans Boys 2 - LA 0342-AU17-MET DC H 4 09:43:02.72 13.229 01:38:08 Yes
446 Ruiz Loft - TX 29305-MX17-FMC BB H 4 09:43:07.05 13.221 01:38:13 Yes
447 Abel Loft - CA 7575-AU17-HAN BB H 4 09:43:25.27 13.191 01:38:31 Yes
448 Nesneb Racing Loft - AL 17104-AU17-MOB BB C 4 09:43:34.20 13.177 01:38:39 Yes
449 Johnson/Mailhes - LA 0160-AU17-LAF BB H 4 09:43:51.56 13.148 01:38:57 Yes
450 Buck`S - TX 2043-AU17-KBUC BB H 3 09:43:52.72 13.146 01:38:58 Yes
451 Neighbor Hood Bullies - TX 0757-AU17-WF BC H 6 09:44:19.20 13.103 01:39:25 Yes
452 H & H Loft - TX 6959-AU17-VK BB H 7 09:44:20.38 13.101 01:39:26 Yes
453 Alfonso Garcia - TX 0280-AU17-DAL BB H 5 09:44:45.44 13.061 01:39:51 Yes
454 - 12095-AU17-AA 29 09:44:51.20 13.051 01:39:57
455 Rossi Loft Llc - WI 2088-AU17-KEN BB H 4 09:45:13.56 13.015 01:40:19 Yes
456 Elton Dinga - TX 12089-AU17-AA BB H 30 09:45:20.08 13.005 01:40:25 Yes
457 Crestview Loft - TX 1337-AU17-CVL BB H 4 09:45:39.81 12.973 01:40:45 Yes
458 Armando & Rameriz Loft - TX 29375-MX17-FMC BB C 6 09:45:47.86 12.960 01:40:54 Yes
459 Anderson, Aycock & Louie - AZ 1335-AU17-DTCH BC H 4 09:46:07.25 12.930 01:41:13 Yes
460 L & L Loft - AL 17034-AU17-LL BC H 9 09:46:09.61 12.926 01:41:15 Yes
461 Hillbilly Loft - TX 17656-AU17-AA BB H 6 09:46:38.94 12.880 01:41:44 Yes
462 Racing Pigeon Mall - WA 0705-AU17-RPM BC H 3 09:46:40.19 12.878 01:41:45 Yes
463 H & H Loft - TX 6948-AU17-VK BB H 8 09:47:05.75 12.838 01:42:11 Yes
464 Crestview Loft - TX 1340-AU17-CVL BBPD C 5 09:47:07.42 12.835 01:42:13 Yes
465 John Coker - TX 34096-AU17-AA BC C 4 09:47:40.77 12.783 01:42:46 Yes
466 Tex-Mex Loft - TX 0674-AU17-NSL BSPL H 13 09:48:03.44 12.748 01:43:09 Yes
467 Marengo Creek Farms - AL 2771-AU17-MCF BB H 7 09:48:09.95 12.738 01:43:16 Yes
468 Hutchins Loft - TX 0069-AU17-HUCH BB C 5 09:48:27.19 12.712 01:43:33 Yes
469 Perfection Loft - KS 3748-AU17-AA BC H 5 09:48:28.20 12.710 01:43:34 Yes
470 Rossi Loft Llc - WI 2094-AU17-KEN BB H 5 09:48:53.17 12.672 01:43:59 Yes
471 Bill Kluge - TX 1771-AU17-COLD BB C 10 09:49:13.42 12.642 01:44:19 Yes
472 Nesneb Racing Loft - AL 17098-AU17-NSNB BB H 5 09:49:20.80 12.630 01:44:27 Yes
473 Flying D Diva - TX 0196-AU17-FLYD BB H 2 09:49:47.94 12.590 01:44:53 Yes
474 Wartick Loft - KS 0247-AU17-AIR DC H 4 09:50:12.00 12.553 01:45:18 Yes
475 Quest Syndicate/Any Given Day Loft - TX 16617-AU17-QS BB C 7 09:50:29.83 12.527 01:45:35 Yes
476 Aok Loft - NE 0962-AU17-OMAH BB H 4 09:50:40.45 12.511 01:45:46 Yes
477 Wartick Loft - KS 35897-AU17-AA BWFP H 5 09:50:54.02 12.491 01:46:00 Yes
478 Quest Syndicate/Any Given Day Loft - TX 16610-AU17-QS BB H 8 09:51:07.67 12.471 01:46:13 Yes
479 Lawrence Cummins - UT 0984-AU17-DWI BC H 2 09:51:34.28 12.432 01:46:40 Yes
480 Dream Team - VT 0396-AU17-JCZL 85x1000 BB H 3 10:33:18.24 9.602 02:28:23 Died
481 Elton Dinga - TX 12147-AU17-AA BC H 31 10:33:38.97 9.583 02:28:45 Yes
482 Flying D Loft - TX 0302-AU17-FLYD BB H 2 10:33:49.41 9.574 02:28:55 Yes
483 Da Dong - WI 0352-AU17-RAC BB H 1 10:34:01.11 9.564 02:29:07 Yes
484 Bynum Family Lofts - TX 0221-AU17-BFL BB C 6 10:34:12.02 9.555 02:29:17 Yes
485 Barry Venn - WY 1968-AU17-VENN BB H 2 10:34:21.41 9.547 02:29:27 Yes
486 Liqingni Loft - NY 0288-AU17-YANG BB C 1 10:34:33.91 9.536 02:29:39 Yes
487 K & J Loft - OK 1716-AU17-VK BB H 1 10:34:42.59 9.528 02:29:49 Yes
488 O & L De Vries - ON 2429-AU17-OL BB C 2 10:34:53.64 9.519 02:29:59 Yes
489 Cbs & Rick - OK 1918-AU17-CBS BB H 5 10:35:01.81 9.512 02:30:07 Yes
490 New Orleans Boys 2 - LA 0344-AU17-MET BB H 5 10:35:11.16 9.504 02:30:17 Yes
491 Dave Byer - CA 5723-AU17-ARPU BB H 2 10:35:17.94 9.498 02:30:24 Yes
492 Skylinerpl.Com - UT 0965-AU17-UVI BC C 1 10:35:25.56 9.492 02:30:31 Yes
493 Milestone Loft - CA 0175-AU17-SD BB H 2 10:35:37.39 9.482 02:30:42 Yes
494 Dream Team - VT 0818-AU17-JCZL BC H 4 10:35:46.86 9.474 02:30:52 Yes
495 Utaz Boys/ Jones - UT 1055-AU17-SLI BB H 1 10:35:55.58 9.466 02:31:01 Yes
496 New Orleans Boys 2 - LA 0339-AU17-MET DCWF C 6 10:36:04.34 9.459 02:31:09 Yes
497 Drama Queen Loft - TX 1278-AU17-GCI BB H 1 10:36:13.81 9.451 02:31:19 Yes
498 Cbs & Steve - OK 1850-AU17-CBS BB H 5 10:36:20.64 9.445 02:31:26 Yes
499 Tulsa Racers - OK 0766-AU17-TULS BB H 1 10:36:28.66 9.438 02:31:34 Yes
500 Elton Dinga - TX 12141-AU17-AA SIL H 32 10:36:34.47 9.433 02:31:40 Yes

There are 989 bird records

Note: These Race Results are unofficial and subject to change until verified by the Race Committee and declared final.